KCCY/CCY METAR and TAF weather

Enter ICAO airport designator
Station Type Date Time Source
KCCY METAR 2020/08/14 17:35 UTC NOAA

KCCY 141735Z AUTO 17009KT 10SM FEW024 27/23 A3002 RMK AO2


Station Type Date Time Source
KCCY Decoded METAR 2020/08/14 17:35 UTC NOAA

Charles City, IA, United States (KCCY) 43-04N 092-37W
Aug 14, 2020 - 01:35 PM EDT / 2020.08.14 1735 UTC
Wind: from the S (170 degrees) at 10 MPH (9 KT):0
Visibility: 10 mile(s):0
Sky conditions: mostly clear
Temperature: 80 F (27 C)
Dew Point: 73 F (23 C)
Relative Humidity: 78%
Pressure (altimeter): 30.02 in. Hg (1016 hPa)
ob: KCCY 141735Z AUTO 17009KT 10SM FEW024 27/23 A3002 RMK AO2
cycle: 17

Station Type Date Time Source
KCCY TAF UTC NOAA

Error!

Example: see airport list